Arcadia, Oklahoma
Current Conditions -  °F | °C
As of 9:53 PM on Wednesday 22 Oct 2014 (Local Time) from KGOK Reporting Station
Moderate Rain Moderate Rain  
Wind Chill: 17°   Ceiling: 10000
Heat Index: 17°   Visibility: 10mi
Dew Point: 16°   Wind: 6mph
Humidity: 90%   Direction: 210°SSW
Pressure: 30.12"   Gusts: NA
Location:  35.67°N, 97.33°W
Report Text: KGOK 230253Z AUTO 21005KT 10SM RA FEW055 OVC100 17/16 A3012 RMK AO2 SLP194 P0010 60015 T01720156 51014
Loading
Personal Weather Stations






























Interactive Weather Map New forecast layout! Learn more

10-Day Weather Forecast

Advertisements
Track Severe Weather on mobile